createdAt,value
2022-11-25T00:01:33.736Z,2.47
2022-11-25T00:04:02.612Z,6.00
2022-11-25T00:06:34.050Z,6.38
2022-11-25T00:09:04.936Z,9.27
2022-11-25T00:11:37.890Z,10.00
2022-11-25T00:14:08.715Z,7.05
2022-11-25T00:16:37.062Z,8.80
2022-11-25T00:19:05.944Z,4.70
2022-11-25T00:21:36.010Z,4.25
2022-11-25T00:24:07.044Z,8.73
2022-11-25T00:26:37.521Z,7.32
2022-11-25T00:29:08.498Z,7.28
2022-11-25T00:31:39.265Z,8.27
2022-11-25T00:34:08.546Z,9.63
2022-11-25T00:36:39.988Z,8.23
2022-11-25T00:39:10.784Z,11.95
2022-11-25T00:41:56.756Z,6.43
2022-11-25T00:44:38.981Z,4.07
2022-11-25T00:47:11.838Z,9.55
2022-11-25T00:49:42.332Z,4.60
2022-11-25T00:52:16.341Z,11.15
2022-11-25T00:54:45.955Z,10.13
2022-11-25T00:57:14.932Z,9.88
2022-11-25T00:59:43.628Z,11.50
2022-11-25T01:02:13.627Z,12.43
2022-11-25T01:04:42.297Z,7.38
2022-11-25T01:07:12.223Z,7.40
2022-11-25T01:09:41.197Z,9.88
2022-11-25T01:12:09.665Z,8.10
2022-11-25T01:14:38.590Z,8.13
2022-11-25T01:17:07.869Z,8.88
2022-11-25T01:19:40.274Z,13.57
2022-11-25T01:22:08.948Z,8.80
2022-11-25T01:24:39.272Z,7.53
2022-11-25T01:27:08.111Z,10.60
2022-11-25T01:29:36.588Z,7.85
2022-11-25T01:32:04.980Z,12.65
2022-11-25T01:34:34.823Z,7.35
2022-11-25T01:37:03.303Z,9.35
2022-11-25T01:42:04.267Z,11.13
2022-11-25T01:44:34.907Z,8.77
2022-11-25T01:47:06.701Z,8.32
2022-11-25T01:49:40.815Z,7.00
2022-11-25T01:52:15.522Z,8.68
2022-11-25T01:54:51.961Z,8.77
2022-11-25T01:57:26.215Z,9.23
2022-11-25T01:59:59.254Z,8.45
2022-11-25T02:02:28.471Z,8.10
2022-11-25T02:04:58.148Z,6.38
2022-11-25T02:07:33.281Z,11.18
2022-11-25T02:10:03.395Z,9.15
2022-11-25T02:12:33.967Z,13.43
2022-11-25T02:15:02.334Z,8.63
2022-11-25T02:17:31.231Z,14.68
2022-11-25T02:20:04.572Z,13.95
2022-11-25T02:22:46.691Z,8.88
2022-11-25T02:25:21.874Z,7.72
2022-11-25T02:27:53.957Z,9.20
2022-11-25T02:30:22.705Z,8.55
2022-11-25T02:32:51.943Z,10.30
2022-11-25T02:35:32.632Z,12.45
2022-11-25T02:38:06.404Z,7.65
2022-11-25T02:40:42.148Z,10.77
2022-11-25T02:43:11.366Z,8.80
2022-11-25T02:45:54.085Z,9.65
2022-11-25T02:48:39.725Z,11.35
2022-11-25T02:51:13.674Z,6.90
2022-11-25T02:53:42.174Z,8.18
2022-11-25T02:56:14.158Z,7.38
2022-11-25T02:58:43.592Z,7.25
2022-11-25T03:01:12.185Z,9.23
2022-11-25T03:03:40.641Z,12.27
2022-11-25T03:06:10.113Z,9.07
2022-11-25T03:08:39.553Z,11.75
2022-11-25T03:11:12.689Z,9.25
2022-11-25T03:13:42.668Z,10.63
2022-11-25T03:16:11.782Z,10.05
2022-11-25T03:18:40.537Z,8.52
2022-11-25T03:21:08.868Z,6.22
2022-11-25T03:26:07.398Z,8.48
2022-11-25T03:28:37.583Z,6.57
2022-11-25T03:31:06.436Z,6.45
2022-11-25T03:33:37.712Z,6.45
2022-11-25T03:36:08.177Z,7.93
2022-11-25T03:38:36.690Z,9.80
2022-11-25T03:41:05.228Z,5.28
2022-11-25T03:43:35.810Z,10.30
2022-11-25T03:46:06.739Z,6.85
2022-11-25T03:48:35.308Z,13.32
2022-11-25T03:51:03.889Z,8.80
2022-11-25T03:53:32.557Z,6.90
2022-11-25T03:56:03.539Z,10.40
2022-11-25T03:58:32.692Z,6.32
2022-11-25T04:01:02.682Z,5.85
2022-11-25T04:03:33.618Z,10.52
2022-11-25T04:06:02.715Z,6.80
2022-11-25T04:08:32.218Z,8.82
2022-11-25T04:11:01.233Z,10.98
2022-11-25T04:13:32.600Z,8.20
2022-11-25T04:16:01.194Z,12.43
2022-11-25T04:18:29.462Z,10.57
2022-11-25T04:21:01.392Z,6.47
2022-11-25T04:23:30.005Z,6.72
2022-11-25T04:26:02.742Z,7.85
2022-11-25T04:31:10.674Z,11.50
2022-11-25T04:33:42.617Z,8.70
2022-11-25T04:36:13.062Z,10.32
2022-11-25T04:38:41.558Z,11.00
2022-11-25T04:41:10.415Z,5.57
2022-11-25T04:43:43.854Z,10.60
2022-11-25T04:46:18.440Z,12.00
2022-11-25T04:48:52.661Z,9.53
2022-11-25T04:51:23.688Z,4.85
2022-11-25T04:53:58.057Z,6.10
2022-11-25T04:56:27.427Z,9.77
2022-11-25T04:59:14.471Z,7.35
2022-11-25T05:01:46.813Z,7.75
2022-11-25T05:04:35.860Z,6.78
2022-11-25T05:07:06.211Z,5.53
2022-11-25T05:09:35.099Z,6.35
2022-11-25T05:12:17.535Z,8.77
2022-11-25T05:14:46.475Z,5.65
2022-11-25T05:17:16.423Z,6.28
2022-11-25T05:19:46.216Z,6.43
2022-11-25T05:22:19.572Z,7.53
2022-11-25T05:24:48.214Z,11.02
2022-11-25T05:27:18.058Z,3.45
2022-11-25T05:29:51.400Z,7.38
2022-11-25T05:32:22.840Z,6.95
2022-11-25T05:34:51.460Z,7.55
2022-11-25T05:37:24.532Z,9.10
2022-11-25T05:40:00.340Z,10.93
2022-11-25T05:42:51.526Z,6.22
2022-11-25T05:45:21.086Z,9.73
2022-11-25T05:47:50.353Z,9.00
2022-11-25T05:50:23.102Z,10.68
2022-11-25T05:53:06.087Z,10.52
2022-11-25T05:55:36.624Z,4.50
2022-11-25T05:58:09.691Z,8.48
2022-11-25T06:00:38.125Z,7.07
2022-11-25T06:03:11.437Z,11.40
2022-11-25T06:05:41.317Z,13.23
2022-11-25T06:08:11.252Z,3.88
2022-11-25T06:10:40.689Z,9.20
2022-11-25T06:13:09.666Z,8.68
2022-11-25T06:15:43.171Z,9.77
2022-11-25T06:18:14.220Z,7.82
2022-11-25T06:20:42.885Z,8.45
2022-11-25T06:23:13.221Z,9.57
2022-11-25T06:25:41.979Z,7.60
2022-11-25T06:30:46.916Z,7.50
2022-11-25T06:33:22.258Z,9.77
2022-11-25T06:35:51.359Z,8.35
2022-11-25T06:38:21.087Z,10.20
2022-11-25T06:40:49.863Z,4.30
2022-11-25T06:43:18.091Z,6.35
2022-11-25T06:48:14.618Z,6.28
2022-11-25T06:50:43.224Z,8.75
2022-11-25T06:53:12.142Z,7.50
2022-11-25T06:55:41.945Z,9.15
2022-11-25T06:58:34.309Z,15.93
2022-11-25T07:01:02.639Z,9.95
2022-11-25T07:03:31.230Z,11.10
2022-11-25T07:05:59.710Z,8.13
2022-11-25T07:08:32.423Z,9.82
2022-11-25T07:11:09.466Z,10.48
2022-11-25T07:13:37.801Z,9.45
2022-11-25T07:16:08.299Z,8.05
2022-11-25T07:18:38.998Z,8.52
2022-11-25T07:21:09.491Z,12.73
2022-11-25T07:23:39.186Z,9.02
2022-11-25T07:26:10.865Z,10.00
2022-11-25T07:28:40.495Z,11.05
2022-11-25T07:34:01.803Z,9.23
2022-11-25T07:36:32.289Z,9.57
2022-11-25T07:39:03.186Z,9.05
2022-11-25T07:41:34.139Z,13.90
2022-11-25T07:44:04.379Z,7.38
2022-11-25T07:46:45.434Z,12.38
2022-11-25T07:49:17.424Z,8.55
2022-11-25T07:51:50.531Z,9.75
2022-11-25T07:54:18.909Z,9.63
2022-11-25T07:56:49.897Z,9.52
2022-11-25T07:59:19.899Z,8.00
2022-11-25T08:01:50.800Z,14.20
2022-11-25T08:04:20.724Z,15.88
2022-11-25T08:06:51.044Z,8.45
2022-11-25T08:09:21.415Z,10.90
2022-11-25T08:11:51.632Z,8.88
2022-11-25T08:14:21.590Z,9.60
2022-11-25T08:16:50.057Z,8.30
2022-11-25T08:19:18.948Z,9.65
2022-11-25T08:21:48.567Z,12.05
2022-11-25T08:24:17.903Z,10.85
2022-11-25T08:26:46.626Z,11.13
2022-11-25T08:29:18.172Z,12.40
2022-11-25T08:31:46.798Z,10.68
2022-11-25T08:34:20.205Z,9.00
2022-11-25T08:36:50.176Z,5.15
2022-11-25T08:42:09.260Z,13.80
2022-11-25T08:44:38.999Z,10.65
2022-11-25T08:47:07.402Z,9.40
2022-11-25T08:49:40.802Z,11.57
2022-11-25T08:52:10.566Z,8.88
2022-11-25T08:54:39.708Z,12.48
2022-11-25T08:57:08.799Z,8.52
2022-11-25T08:59:39.322Z,9.90
2022-11-25T09:02:10.031Z,10.48
2022-11-25T09:04:38.595Z,6.45
2022-11-25T09:07:07.010Z,8.40
2022-11-25T09:09:36.041Z,11.35
2022-11-25T09:12:05.176Z,7.47
2022-11-25T09:14:33.679Z,11.05
2022-11-25T09:17:03.925Z,7.30
2022-11-25T09:19:32.854Z,12.07
2022-11-25T09:22:01.137Z,11.43
2022-11-25T09:26:58.387Z,7.80
2022-11-25T09:29:27.897Z,11.20
2022-11-25T09:31:56.399Z,13.95
2022-11-25T09:36:54.886Z,8.40
2022-11-25T09:42:26.709Z,8.77
2022-11-25T09:45:25.626Z,6.32
2022-11-25T09:48:08.283Z,7.70
2022-11-25T09:50:50.547Z,7.93
2022-11-25T09:53:32.923Z,12.85
2022-11-25T09:56:05.977Z,7.78
2022-11-25T09:58:38.506Z,3.38
2022-11-25T10:01:09.213Z,8.95
2022-11-25T10:03:42.571Z,9.48
2022-11-25T10:06:18.181Z,11.48
2022-11-25T10:08:51.317Z,11.82
2022-11-25T10:11:29.759Z,7.72
2022-11-25T10:14:04.717Z,7.82
2022-11-25T10:16:40.822Z,7.38
2022-11-25T10:19:20.235Z,8.32
2022-11-25T10:21:50.642Z,7.68
2022-11-25T10:24:21.534Z,7.75
2022-11-25T10:26:57.268Z,5.15
2022-11-25T10:29:29.037Z,5.82
2022-11-25T10:32:05.781Z,6.78
2022-11-25T10:34:42.168Z,6.95
2022-11-25T10:37:19.375Z,7.50
2022-11-25T10:39:48.389Z,7.50
2022-11-25T10:42:22.335Z,8.52
2022-11-25T10:44:51.197Z,7.47
2022-11-25T10:47:33.596Z,5.70
2022-11-25T10:50:14.651Z,5.40
2022-11-25T10:52:52.427Z,6.13
2022-11-25T10:55:24.317Z,9.18
2022-11-25T10:57:53.170Z,7.70
2022-11-25T11:00:33.718Z,6.88
2022-11-25T11:03:14.961Z,4.82
2022-11-25T11:05:49.941Z,5.97
2022-11-25T11:08:22.588Z,6.22
2022-11-25T11:11:17.235Z,8.95
2022-11-25T11:13:47.063Z,5.60
2022-11-25T11:16:31.490Z,7.05
2022-11-25T11:19:00.503Z,7.30
2022-11-25T11:21:33.259Z,3.72
2022-11-25T11:24:04.237Z,5.45
2022-11-25T11:26:34.721Z,5.70
2022-11-25T11:29:09.838Z,7.55
2022-11-25T11:31:48.008Z,6.80
2022-11-25T11:34:48.263Z,4.70
2022-11-25T11:37:31.302Z,6.07
2022-11-25T11:40:16.545Z,5.95
2022-11-25T11:42:59.094Z,4.35
2022-11-25T11:45:43.722Z,6.13
2022-11-25T11:48:21.671Z,3.78
2022-11-25T11:50:52.538Z,5.90
2022-11-25T11:53:27.293Z,5.70
2022-11-25T11:56:34.886Z,10.75
2022-11-25T11:59:06.470Z,8.60
2022-11-25T12:01:48.689Z,5.95
2022-11-25T12:04:22.995Z,9.63
2022-11-25T12:07:03.043Z,11.15
2022-11-25T12:09:33.986Z,5.97
2022-11-25T12:12:07.595Z,6.95
2022-11-25T12:14:43.088Z,9.52
2022-11-25T12:17:17.202Z,9.68
2022-11-25T12:19:54.340Z,9.07
2022-11-25T12:22:28.217Z,12.15
2022-11-25T12:25:08.930Z,11.55
2022-11-25T12:27:43.468Z,12.88
2022-11-25T12:30:14.948Z,8.32
2022-11-25T12:32:58.401Z,5.78
2022-11-25T12:35:39.300Z,6.07
2022-11-25T12:38:19.859Z,9.82
2022-11-25T12:40:54.510Z,12.07
2022-11-25T12:43:34.955Z,12.55
2022-11-25T12:46:14.566Z,8.00
2022-11-25T12:48:44.408Z,10.38
2022-11-25T12:51:25.860Z,11.25
2022-11-25T12:54:08.120Z,13.55
2022-11-25T12:56:53.465Z,7.13
2022-11-25T12:59:44.471Z,9.32
2022-11-25T13:02:36.254Z,8.20
2022-11-25T13:05:43.425Z,12.30
2022-11-25T13:08:23.171Z,11.68
2022-11-25T13:11:06.833Z,8.05
2022-11-25T13:13:48.468Z,8.68
2022-11-25T13:16:21.050Z,11.52
2022-11-25T13:18:51.256Z,11.32
2022-11-25T13:21:21.472Z,15.82
2022-11-25T13:23:53.323Z,11.50
2022-11-25T13:26:50.495Z,9.93
2022-11-25T13:29:56.310Z,16.83
2022-11-25T13:32:43.427Z,9.00
2022-11-25T13:35:37.283Z,13.15
2022-11-25T13:38:37.096Z,12.27
2022-11-25T13:41:24.278Z,12.07
2022-11-25T13:44:06.831Z,10.18
2022-11-25T13:46:41.082Z,12.85
2022-11-25T13:49:26.229Z,15.27
2022-11-25T13:51:57.018Z,8.13
2022-11-25T13:54:33.091Z,9.32
2022-11-25T13:57:19.834Z,8.27
2022-11-25T13:59:54.393Z,12.75
2022-11-25T14:02:33.889Z,14.32
2022-11-25T14:05:16.961Z,15.10
2022-11-25T14:07:53.066Z,11.10
2022-11-25T14:10:36.478Z,10.10
2022-11-25T14:13:21.833Z,15.52
2022-11-25T14:16:14.940Z,12.45
2022-11-25T14:19:43.349Z,6.18
2022-11-25T14:24:41.054Z,11.02
2022-11-25T14:27:17.316Z,14.52
2022-11-25T14:29:52.487Z,14.63
2022-11-25T14:32:24.181Z,11.40
2022-11-25T14:34:59.454Z,14.90
2022-11-25T14:37:36.939Z,14.13
2022-11-25T14:40:09.666Z,14.43
2022-11-25T14:42:41.105Z,15.27
2022-11-25T14:45:22.641Z,8.52
2022-11-25T14:47:51.244Z,10.15
2022-11-25T14:50:34.737Z,16.02
2022-11-25T14:53:09.435Z,14.25
2022-11-25T14:55:39.026Z,10.95
2022-11-25T14:58:07.602Z,16.08
2022-11-25T15:00:36.167Z,11.68
2022-11-25T15:05:36.547Z,16.83
2022-11-25T15:08:14.561Z,12.25
2022-11-25T15:10:51.061Z,12.55
2022-11-25T15:13:30.964Z,8.77
2022-11-25T15:16:05.998Z,7.38
2022-11-25T15:18:36.833Z,9.38
2022-11-25T15:21:05.907Z,13.68
2022-11-25T15:23:39.377Z,14.02
2022-11-25T15:26:19.257Z,11.90
2022-11-25T15:28:48.339Z,22.05
2022-11-25T15:31:21.173Z,13.20
2022-11-25T15:33:54.933Z,13.10
2022-11-25T15:36:24.809Z,15.48
2022-11-25T15:38:54.867Z,12.68
2022-11-25T15:41:35.405Z,10.43
2022-11-25T15:44:06.351Z,10.55
2022-11-25T15:46:38.008Z,16.77
2022-11-25T15:49:08.963Z,14.80
2022-11-25T15:51:42.937Z,9.30
2022-11-25T15:54:22.498Z,14.10
2022-11-25T15:56:52.791Z,12.85
2022-11-25T15:59:48.126Z,14.18
2022-11-25T16:02:41.082Z,10.77
2022-11-25T16:05:35.782Z,14.75
2022-11-25T16:08:27.252Z,10.63
2022-11-25T16:11:19.323Z,9.98
2022-11-25T16:13:48.802Z,10.38
2022-11-25T16:16:24.157Z,10.60
2022-11-25T16:19:19.415Z,13.70
2022-11-25T16:21:53.799Z,11.32
2022-11-25T16:24:35.227Z,11.48
2022-11-25T16:27:08.772Z,14.55
2022-11-25T16:29:41.003Z,14.13
2022-11-25T16:32:16.194Z,15.35
2022-11-25T16:34:44.954Z,11.38
2022-11-25T16:37:13.844Z,19.02
2022-11-25T16:39:43.446Z,15.02
2022-11-25T16:42:19.959Z,14.70
2022-11-25T16:44:50.087Z,12.18
2022-11-25T16:47:19.980Z,10.63
2022-11-25T16:49:48.417Z,12.82
2022-11-25T16:57:22.034Z,15.07
2022-11-25T16:59:57.230Z,14.73
2022-11-25T17:02:27.760Z,18.35
2022-11-25T17:04:57.306Z,18.48
2022-11-25T17:07:33.932Z,12.60
2022-11-25T17:10:02.901Z,13.40
2022-11-25T17:12:36.195Z,15.65
2022-11-25T17:15:09.036Z,17.33
2022-11-25T17:17:37.691Z,10.93
2022-11-25T17:20:07.943Z,10.38
2022-11-25T17:22:39.367Z,15.25
2022-11-25T17:25:08.955Z,19.58
2022-11-25T17:27:39.094Z,13.35
2022-11-25T17:30:14.476Z,13.57
2022-11-25T17:32:43.416Z,18.05
2022-11-25T17:35:19.062Z,10.68
2022-11-25T17:37:48.033Z,12.98
2022-11-25T17:40:17.479Z,12.93
2022-11-25T17:42:50.170Z,19.95
2022-11-25T17:45:20.568Z,12.07
2022-11-25T17:47:49.281Z,12.70
2022-11-25T17:50:20.078Z,18.08
2022-11-25T17:52:48.502Z,14.70
2022-11-25T17:57:50.360Z,19.70
2022-11-25T18:00:21.267Z,16.67
2022-11-25T18:02:50.731Z,17.42
2022-11-25T18:05:21.075Z,13.43
2022-11-25T18:07:49.971Z,16.95
2022-11-25T18:10:20.307Z,17.98
2022-11-25T18:12:53.752Z,12.80
2022-11-25T18:15:25.181Z,14.93
2022-11-25T18:18:01.655Z,17.77
2022-11-25T18:20:33.068Z,13.10
2022-11-25T18:23:02.375Z,17.95
2022-11-25T18:25:33.014Z,21.67
2022-11-25T18:28:05.381Z,12.32
2022-11-25T18:30:35.474Z,12.10
2022-11-25T18:33:06.396Z,12.57
2022-11-25T18:35:36.865Z,16.00
2022-11-25T18:38:05.812Z,15.73
2022-11-25T18:40:35.269Z,14.90
2022-11-25T18:43:06.118Z,23.75
2022-11-25T18:45:38.122Z,12.80
2022-11-25T18:48:14.721Z,22.23
2022-11-25T18:50:43.797Z,17.63
2022-11-25T18:53:12.154Z,20.95
2022-11-25T18:58:17.021Z,14.75
2022-11-25T19:00:48.520Z,17.88
2022-11-25T19:03:20.380Z,14.55
2022-11-25T19:05:50.078Z,10.02
2022-11-25T19:08:20.061Z,18.73
2022-11-25T19:10:50.590Z,15.63
2022-11-25T19:13:27.138Z,14.98
2022-11-25T19:15:56.281Z,14.23
2022-11-25T19:18:27.379Z,13.52
2022-11-25T19:20:55.935Z,14.63
2022-11-25T19:25:56.070Z,18.60
2022-11-25T19:28:26.153Z,16.88
2022-11-25T19:31:00.016Z,18.67
2022-11-25T19:33:32.184Z,18.13
2022-11-25T19:36:00.941Z,21.20
2022-11-25T19:38:31.340Z,18.25
2022-11-25T19:41:00.053Z,20.80
2022-11-25T19:43:29.861Z,22.77
2022-11-25T19:45:59.305Z,22.17
2022-11-25T19:48:32.168Z,21.63
2022-11-25T19:51:02.343Z,17.77
2022-11-25T19:53:34.176Z,21.73
2022-11-25T19:56:04.756Z,17.98
2022-11-25T19:58:34.999Z,21.95
2022-11-25T20:01:06.270Z,17.83
2022-11-25T20:03:36.851Z,17.38
2022-11-25T20:06:06.423Z,14.35
2022-11-25T20:08:34.763Z,20.42
2022-11-25T20:13:31.059Z,14.40
2022-11-25T20:18:29.424Z,24.08
2022-11-25T20:21:02.339Z,18.30
2022-11-25T20:23:38.787Z,23.73
2022-11-25T20:26:17.738Z,20.77
2022-11-25T20:28:46.654Z,26.20
2022-11-25T20:31:16.671Z,14.15
2022-11-25T20:33:45.297Z,28.42
2022-11-25T20:36:16.831Z,23.42
2022-11-25T20:38:50.502Z,23.08
2022-11-25T20:41:24.378Z,18.23
2022-11-25T20:43:56.645Z,32.95
2022-11-25T20:46:29.504Z,24.40
2022-11-25T20:49:00.601Z,17.58
2022-11-25T20:51:30.138Z,24.40
2022-11-25T20:54:01.006Z,14.23
2022-11-25T20:56:30.143Z,16.25
2022-11-25T20:58:58.713Z,19.83
2022-11-25T21:03:56.973Z,22.55
2022-11-25T21:06:28.676Z,22.27
2022-11-25T21:08:59.455Z,16.33
2022-11-25T21:11:28.350Z,16.85
2022-11-25T21:13:56.843Z,25.95
2022-11-25T21:16:25.743Z,26.33
2022-11-25T21:18:56.007Z,19.83
2022-11-25T21:21:30.921Z,18.67
2022-11-25T21:24:02.417Z,17.23
2022-11-25T21:26:30.857Z,25.60
2022-11-25T21:31:27.928Z,23.05
2022-11-25T21:33:59.910Z,15.27
2022-11-25T21:36:30.496Z,23.15
2022-11-25T21:39:05.043Z,14.77
2022-11-25T21:41:34.097Z,15.55
2022-11-25T21:44:05.492Z,19.33
2022-11-25T21:46:33.928Z,12.82
2022-11-25T21:49:10.448Z,22.00
2022-11-25T21:51:38.906Z,23.40
2022-11-25T21:56:36.157Z,15.00
2022-11-25T22:01:34.288Z,16.05
2022-11-25T22:04:04.534Z,18.20
2022-11-25T22:06:33.083Z,20.08
2022-11-25T22:09:01.606Z,16.98
2022-11-25T22:14:02.280Z,16.98
2022-11-25T22:16:32.777Z,14.10
2022-11-25T22:19:01.438Z,19.48
2022-11-25T22:21:31.701Z,14.93
2022-11-25T22:24:00.362Z,17.83
2022-11-25T22:26:32.178Z,12.27
2022-11-25T22:29:02.572Z,16.45
2022-11-25T22:31:31.230Z,14.20
2022-11-25T22:33:59.510Z,12.18
2022-11-25T22:36:34.546Z,25.48
2022-11-25T22:39:13.988Z,14.48
2022-11-25T22:41:43.612Z,12.73
2022-11-25T22:44:20.557Z,14.07
2022-11-25T22:46:49.984Z,19.63
2022-11-25T22:49:32.110Z,17.67
2022-11-25T22:52:02.355Z,25.40
2022-11-25T22:54:30.812Z,14.32
2022-11-25T22:59:27.784Z,13.80
2022-11-25T23:01:56.615Z,13.25
2022-11-25T23:04:24.998Z,13.40
2022-11-25T23:06:56.086Z,26.95
2022-11-25T23:09:25.983Z,16.38
2022-11-25T23:11:55.451Z,18.80
2022-11-25T23:14:23.948Z,11.45
2022-11-25T23:16:52.412Z,21.25
2022-11-25T23:24:18.471Z,15.88
2022-11-25T23:26:48.571Z,20.05
2022-11-25T23:29:17.202Z,11.88
2022-11-25T23:31:45.551Z,14.70
2022-11-25T23:36:47.979Z,12.30
2022-11-25T23:39:20.451Z,14.20
2022-11-25T23:41:51.382Z,13.90
2022-11-25T23:44:25.064Z,12.93
2022-11-25T23:46:55.499Z,21.70
2022-11-25T23:49:27.052Z,15.00
2022-11-25T23:51:59.582Z,13.95
2022-11-25T23:54:40.286Z,16.95
2022-11-25T23:57:16.188Z,15.50
2022-11-25T23:59:45.162Z,22.15
